createdAt,value
2017-09-05T00:01:32.238Z,5.45
2017-09-05T00:04:01.487Z,4.90
2017-09-05T00:06:30.729Z,6.10
2017-09-05T00:08:59.983Z,8.35
2017-09-05T00:11:39.327Z,6.80
2017-09-05T00:14:08.574Z,4.30
2017-09-05T00:16:41.707Z,6.10
2017-09-05T00:19:14.294Z,6.12
2017-09-05T00:24:52.284Z,4.45
2017-09-05T00:27:21.564Z,4.10
2017-09-05T00:29:50.803Z,4.75
2017-09-05T00:32:20.055Z,5.72
2017-09-05T00:34:49.471Z,4.47
2017-09-05T00:37:18.711Z,4.05
2017-09-05T00:39:47.944Z,4.85
2017-09-05T00:42:17.223Z,4.18
2017-09-05T00:44:46.467Z,4.75
2017-09-05T00:47:15.712Z,4.90
2017-09-05T00:49:44.990Z,5.15
2017-09-05T00:52:14.232Z,5.72
2017-09-05T00:54:43.477Z,4.85
2017-09-05T00:57:12.766Z,5.10
2017-09-05T00:59:42.109Z,5.57
2017-09-05T01:02:11.343Z,4.90
2017-09-05T01:04:40.729Z,5.20
2017-09-05T01:07:09.962Z,5.00
2017-09-05T01:09:39.207Z,5.43
2017-09-05T01:12:08.478Z,6.22
2017-09-05T01:14:37.723Z,5.78
2017-09-05T01:17:07.003Z,5.97
2017-09-05T01:19:36.261Z,5.95
2017-09-05T01:22:05.595Z,8.35
2017-09-05T01:24:34.853Z,5.78
2017-09-05T01:27:04.101Z,7.72
2017-09-05T01:29:33.347Z,8.23
2017-09-05T01:32:02.620Z,7.05
2017-09-05T01:34:31.859Z,7.20
2017-09-05T01:37:01.175Z,7.00
2017-09-05T01:39:30.429Z,5.97
2017-09-05T01:41:59.688Z,6.22
2017-09-05T01:44:29.771Z,5.90
2017-09-05T01:46:59.019Z,6.05
2017-09-05T01:49:28.303Z,8.10
2017-09-05T01:51:57.617Z,6.70
2017-09-05T01:54:26.846Z,5.78
2017-09-05T01:56:56.097Z,7.32
2017-09-05T01:59:25.513Z,7.37
2017-09-05T02:01:54.763Z,6.60
2017-09-05T02:04:24.007Z,6.00
2017-09-05T02:06:53.276Z,6.97
2017-09-05T02:09:22.527Z,7.00
2017-09-05T02:11:51.995Z,6.50
2017-09-05T02:14:21.259Z,6.78
2017-09-05T02:16:50.516Z,7.53
2017-09-05T02:19:19.794Z,8.32
2017-09-05T02:21:49.085Z,6.70
2017-09-05T02:24:18.377Z,6.47
2017-09-05T02:26:47.635Z,7.57
2017-09-05T02:29:16.914Z,7.35
2017-09-05T02:31:46.180Z,6.68
2017-09-05T02:34:15.473Z,28.95
2017-09-05T02:36:44.743Z,7.60
2017-09-05T02:39:13.988Z,8.55
2017-09-05T02:41:43.469Z,7.68
2017-09-05T02:44:12.711Z,8.95
2017-09-05T02:46:42.068Z,7.70
2017-09-05T02:49:11.493Z,9.18
2017-09-05T02:51:40.747Z,11.60
2017-09-05T02:54:10.035Z,9.05
2017-09-05T02:56:39.447Z,11.48
2017-09-05T02:59:08.715Z,12.32
2017-09-05T03:01:37.974Z,12.82
2017-09-05T03:04:07.276Z,14.00
2017-09-05T03:06:36.556Z,12.32
2017-09-05T03:09:05.815Z,14.13
2017-09-05T03:11:35.143Z,17.48
2017-09-05T03:14:04.406Z,13.32
2017-09-05T03:16:33.704Z,13.82
2017-09-05T03:19:03.142Z,19.02
2017-09-05T03:21:32.407Z,14.73
2017-09-05T03:24:01.679Z,15.85
2017-09-05T03:26:30.967Z,17.20
2017-09-05T03:29:00.244Z,16.37
2017-09-05T03:31:29.553Z,16.67
2017-09-05T03:33:58.829Z,14.63
2017-09-05T03:36:28.088Z,17.05
2017-09-05T03:38:57.411Z,17.80
2017-09-05T03:41:26.741Z,14.57
2017-09-05T03:43:55.992Z,15.65
2017-09-05T03:46:25.268Z,14.55
2017-09-05T03:48:54.574Z,13.70
2017-09-05T03:51:23.846Z,14.13
2017-09-05T03:53:53.112Z,15.32
2017-09-05T03:56:22.420Z,14.68
2017-09-05T03:58:51.684Z,13.85
2017-09-05T04:01:20.960Z,17.00
2017-09-05T04:03:50.399Z,17.27
2017-09-05T04:06:19.665Z,16.10
2017-09-05T04:08:48.941Z,19.77
2017-09-05T04:11:18.258Z,17.15
2017-09-05T04:13:47.515Z,15.18
2017-09-05T04:16:16.779Z,16.12
2017-09-05T04:18:46.055Z,15.65
2017-09-05T04:21:15.318Z,14.77
2017-09-05T04:23:44.751Z,16.90
2017-09-05T04:26:14.049Z,16.23
2017-09-05T04:28:43.312Z,16.50
2017-09-05T04:31:12.785Z,20.00
2017-09-05T04:33:42.040Z,20.10
2017-09-05T04:36:11.286Z,18.08
2017-09-05T04:38:40.630Z,19.17
2017-09-05T04:41:09.997Z,19.25
2017-09-05T04:43:39.260Z,17.40
2017-09-05T04:46:08.663Z,21.37
2017-09-05T04:48:37.924Z,20.65
2017-09-05T04:51:12.806Z,23.75
2017-09-05T04:53:42.060Z,24.55
2017-09-05T04:56:11.338Z,22.92
2017-09-05T04:58:40.630Z,23.23
2017-09-05T05:01:11.911Z,22.70
2017-09-05T05:03:41.365Z,20.77
2017-09-05T05:06:10.671Z,18.37
2017-09-05T05:08:39.920Z,20.33
2017-09-05T05:11:09.485Z,20.62
2017-09-05T05:13:38.961Z,21.73
2017-09-05T05:16:08.239Z,22.27
2017-09-05T05:18:37.572Z,22.73
2017-09-05T05:21:06.869Z,21.67
2017-09-05T05:23:36.143Z,16.85
2017-09-05T05:26:05.395Z,19.90
2017-09-05T05:28:34.693Z,15.95
2017-09-05T05:31:04.009Z,14.90
2017-09-05T05:33:33.315Z,15.40
2017-09-05T05:36:02.623Z,13.38
2017-09-05T05:38:31.902Z,14.10
2017-09-05T05:41:01.186Z,13.23
2017-09-05T05:43:30.545Z,12.73
2017-09-05T05:45:59.911Z,13.95
2017-09-05T05:48:29.332Z,12.15
2017-09-05T05:50:58.605Z,11.75
2017-09-05T05:53:27.869Z,8.85
2017-09-05T05:55:57.283Z,9.98
2017-09-05T05:58:28.450Z,10.50
2017-09-05T06:00:57.732Z,9.45
2017-09-05T06:03:26.993Z,12.85
2017-09-05T06:05:56.260Z,10.57
2017-09-05T06:08:25.561Z,11.25
2017-09-05T06:10:54.903Z,12.05
2017-09-05T06:13:24.155Z,10.00
2017-09-05T06:15:53.563Z,11.82
2017-09-05T06:18:23.107Z,11.70
2017-09-05T06:20:52.354Z,12.02
2017-09-05T06:23:21.623Z,10.73
2017-09-05T06:25:50.912Z,12.27
2017-09-05T06:28:20.175Z,13.55
2017-09-05T06:30:49.483Z,11.98
2017-09-05T06:33:18.739Z,15.60
2017-09-05T06:35:48.010Z,12.18
2017-09-05T06:38:17.302Z,15.63
2017-09-05T06:40:46.548Z,10.45
2017-09-05T06:43:15.800Z,14.57
2017-09-05T06:45:45.062Z,12.00
2017-09-05T06:48:20.449Z,11.75
2017-09-05T06:50:49.880Z,14.40
2017-09-05T06:53:19.253Z,12.10
2017-09-05T06:55:48.639Z,15.60
2017-09-05T06:58:18.190Z,11.40
2017-09-05T07:00:47.620Z,11.77
2017-09-05T07:03:16.959Z,10.98
2017-09-05T07:05:46.540Z,14.63
2017-09-05T07:08:15.968Z,12.45
2017-09-05T07:10:45.249Z,9.93
2017-09-05T07:13:14.511Z,9.25
2017-09-05T07:15:43.755Z,13.70
2017-09-05T07:18:13.207Z,13.70
2017-09-05T07:20:42.463Z,13.75
2017-09-05T07:23:11.780Z,13.35
2017-09-05T07:25:51.855Z,20.20
2017-09-05T07:28:21.147Z,17.02
2017-09-05T07:30:50.607Z,15.35
2017-09-05T07:33:19.863Z,14.98
2017-09-05T07:35:49.118Z,11.90
2017-09-05T07:38:18.408Z,12.43
2017-09-05T07:40:47.687Z,12.27
2017-09-05T07:43:16.939Z,14.85
2017-09-05T07:45:46.230Z,16.50
2017-09-05T07:48:15.467Z,9.85
2017-09-05T07:50:44.747Z,12.65
2017-09-05T07:53:14.000Z,9.13
2017-09-05T07:55:43.239Z,10.57
2017-09-05T07:58:12.548Z,12.13
2017-09-05T08:00:41.804Z,15.65
2017-09-05T08:03:11.044Z,8.73
2017-09-05T08:05:40.484Z,10.82
2017-09-05T08:08:09.727Z,9.18
2017-09-05T08:10:38.967Z,7.95
2017-09-05T08:13:08.255Z,32.13
2017-09-05T08:15:37.519Z,8.45
2017-09-05T08:18:06.759Z,9.95
2017-09-05T08:20:36.031Z,7.70
2017-09-05T08:23:05.275Z,7.82
2017-09-05T08:25:34.520Z,8.02
2017-09-05T08:28:03.791Z,8.65
2017-09-05T08:30:33.030Z,8.30
2017-09-05T08:33:02.295Z,7.87
2017-09-05T08:35:31.535Z,6.93
2017-09-05T08:38:00.781Z,7.28
2017-09-05T08:40:30.044Z,9.30
2017-09-05T08:42:59.309Z,8.40
2017-09-05T08:45:42.959Z,9.70
2017-09-05T08:48:12.207Z,8.20
2017-09-05T08:50:41.454Z,7.93
2017-09-05T08:53:10.728Z,12.65
2017-09-05T08:55:39.988Z,8.60
2017-09-05T08:58:09.232Z,16.95
2017-09-05T09:00:38.679Z,8.80
2017-09-05T09:03:07.919Z,11.60
2017-09-05T09:05:37.171Z,8.50
2017-09-05T09:08:06.472Z,10.05
2017-09-05T09:10:35.736Z,9.00
2017-09-05T09:13:04.987Z,7.95
2017-09-05T09:15:34.264Z,9.38
2017-09-05T09:18:06.739Z,11.65
2017-09-05T09:20:35.975Z,10.73
2017-09-05T09:23:05.212Z,8.60
2017-09-05T09:25:34.487Z,10.73
2017-09-05T09:28:03.743Z,8.32
2017-09-05T09:30:33.035Z,10.52
2017-09-05T09:33:02.289Z,13.80
2017-09-05T09:35:31.533Z,8.90
2017-09-05T09:38:00.794Z,10.00
2017-09-05T09:40:30.055Z,8.90
2017-09-05T09:42:59.487Z,7.80
2017-09-05T09:45:28.745Z,7.62
2017-09-05T09:47:58.012Z,9.93
2017-09-05T09:50:28.041Z,10.57
2017-09-05T09:52:57.294Z,11.68
2017-09-05T09:55:26.719Z,8.25
2017-09-05T09:57:55.967Z,14.23
2017-09-05T10:00:25.215Z,7.78
2017-09-05T10:02:54.471Z,7.00
2017-09-05T10:05:23.708Z,12.15
2017-09-05T10:07:52.976Z,7.00
2017-09-05T10:10:22.244Z,7.32
2017-09-05T10:12:51.510Z,7.47
2017-09-05T10:15:20.752Z,8.10
2017-09-05T10:17:50.188Z,8.70
2017-09-05T10:20:19.431Z,6.93
2017-09-05T10:22:48.672Z,7.85
2017-09-05T10:25:17.947Z,6.22
2017-09-05T10:27:47.204Z,5.53
2017-09-05T10:30:16.450Z,6.03
2017-09-05T10:32:45.722Z,6.82
2017-09-05T10:35:14.993Z,10.32
2017-09-05T10:37:44.239Z,6.78
2017-09-05T10:40:13.480Z,6.90
2017-09-05T10:42:42.744Z,5.70
2017-09-05T10:45:12.032Z,7.07
2017-09-05T10:47:41.270Z,6.60
2017-09-05T10:50:10.564Z,7.18
2017-09-05T10:52:39.848Z,5.60
2017-09-05T10:55:09.095Z,8.18
2017-09-05T10:57:38.348Z,6.60
2017-09-05T11:00:07.620Z,7.68
2017-09-05T11:02:50.127Z,6.45
2017-09-05T11:05:19.373Z,5.35
2017-09-05T11:07:48.624Z,5.05
2017-09-05T11:10:17.901Z,6.25
2017-09-05T11:12:47.346Z,5.95
2017-09-05T11:15:16.587Z,6.25
2017-09-05T11:17:45.834Z,5.47
2017-09-05T11:20:15.100Z,6.85
2017-09-05T11:22:44.368Z,5.90
2017-09-05T11:25:13.619Z,7.37
2017-09-05T11:27:42.896Z,6.00
2017-09-05T11:30:12.159Z,6.72
2017-09-05T11:32:41.464Z,8.07
2017-09-05T11:38:17.038Z,4.40
2017-09-05T11:40:46.292Z,8.85
2017-09-05T11:43:15.539Z,4.65
2017-09-05T11:45:44.951Z,5.97
2017-09-05T11:48:14.207Z,5.03
2017-09-05T11:50:43.455Z,6.93
2017-09-05T11:53:12.721Z,4.22
2017-09-05T11:55:41.966Z,5.90
2017-09-05T11:58:11.240Z,5.10
2017-09-05T12:00:40.488Z,3.85
2017-09-05T12:03:09.730Z,4.53
2017-09-05T12:05:38.995Z,7.45
2017-09-05T12:08:08.235Z,4.50
2017-09-05T12:10:37.519Z,10.07
2017-09-05T12:13:06.927Z,4.87
2017-09-05T12:15:36.167Z,5.25
2017-09-05T12:18:05.427Z,5.53
2017-09-05T12:20:34.674Z,4.22
2017-09-05T12:23:03.919Z,6.85
2017-09-05T12:25:33.217Z,4.12
2017-09-05T12:28:02.464Z,3.90
2017-09-05T12:30:31.707Z,5.28
2017-09-05T12:33:01.153Z,9.38
2017-09-05T12:35:30.408Z,6.60
2017-09-05T12:37:59.643Z,4.45
2017-09-05T12:40:29.003Z,9.95
2017-09-05T12:42:58.251Z,6.20
2017-09-05T12:45:33.279Z,5.95
2017-09-05T12:48:15.202Z,5.85
2017-09-05T12:51:05.842Z,6.72
2017-09-05T12:56:57.976Z,7.05
2017-09-05T12:59:34.869Z,7.90
2017-09-05T13:02:15.334Z,5.97
2017-09-05T13:05:00.301Z,5.43
2017-09-05T13:10:30.654Z,5.75
2017-09-05T13:13:07.521Z,5.18
2017-09-05T13:15:41.308Z,5.55
2017-09-05T13:18:14.547Z,9.32
2017-09-05T13:20:49.724Z,5.43
2017-09-05T13:23:32.724Z,6.20
2017-09-05T13:26:15.498Z,5.35
2017-09-05T13:28:51.743Z,5.40
2017-09-05T13:31:26.802Z,4.68
2017-09-05T13:34:06.885Z,4.93
2017-09-05T13:36:40.600Z,5.15
2017-09-05T13:39:15.294Z,7.00
2017-09-05T13:41:48.013Z,6.85
2017-09-05T13:44:27.188Z,7.28
2017-09-05T13:47:07.475Z,6.12
2017-09-05T13:49:48.806Z,6.87
2017-09-05T13:52:24.151Z,5.20
2017-09-05T13:55:04.319Z,4.57
2017-09-05T13:57:38.790Z,5.05
2017-09-05T14:00:17.116Z,4.93
2017-09-05T14:02:56.420Z,4.97
2017-09-05T14:05:30.727Z,4.37
2017-09-05T14:08:11.170Z,3.33
2017-09-05T14:10:49.012Z,6.72
2017-09-05T14:13:19.346Z,4.25
2017-09-05T14:15:48.605Z,4.32
2017-09-05T14:18:17.852Z,5.85
2017-09-05T14:20:47.094Z,3.75
2017-09-05T14:23:17.348Z,4.22
2017-09-05T14:25:46.644Z,6.22
2017-09-05T14:28:15.912Z,7.40
2017-09-05T14:30:45.179Z,4.40
2017-09-05T14:33:15.362Z,6.40
2017-09-05T14:35:44.603Z,4.57
2017-09-05T14:38:13.846Z,2.90
2017-09-05T14:40:43.314Z,6.50
2017-09-05T14:43:12.587Z,6.45
2017-09-05T14:45:41.833Z,4.20
2017-09-05T14:48:11.103Z,3.67
2017-09-05T14:50:40.361Z,2.83
2017-09-05T14:53:09.636Z,3.08
2017-09-05T14:55:38.956Z,2.85
2017-09-05T14:58:08.207Z,3.20
2017-09-05T15:00:37.443Z,2.10
2017-09-05T15:03:06.719Z,2.00
2017-09-05T15:05:35.968Z,2.33
2017-09-05T15:08:05.216Z,2.75
2017-09-05T15:10:34.583Z,2.35
2017-09-05T15:13:03.891Z,2.78
2017-09-05T15:15:33.147Z,2.37
2017-09-05T15:18:02.571Z,2.20
2017-09-05T15:20:31.816Z,3.00
2017-09-05T15:23:01.059Z,2.65
2017-09-05T15:25:30.315Z,4.22
2017-09-05T15:27:59.563Z,3.45
2017-09-05T15:30:28.806Z,4.37
2017-09-05T15:32:58.253Z,2.80
2017-09-05T15:35:27.496Z,2.40
2017-09-05T15:37:56.740Z,2.00
2017-09-05T15:40:26.191Z,5.57
2017-09-05T15:42:55.419Z,2.50
2017-09-05T15:45:24.659Z,3.58
2017-09-05T15:47:53.957Z,2.55
2017-09-05T15:50:23.251Z,2.60
2017-09-05T15:52:52.487Z,1.98
2017-09-05T15:55:21.752Z,3.67
2017-09-05T15:57:51.232Z,2.40
2017-09-05T16:00:20.516Z,3.78
2017-09-05T16:02:49.759Z,2.37
2017-09-05T16:05:19.014Z,3.60
2017-09-05T16:07:48.263Z,2.70
2017-09-05T16:10:17.529Z,6.25
2017-09-05T16:12:46.877Z,4.90
2017-09-05T16:15:16.118Z,2.58
2017-09-05T16:17:45.423Z,5.60
2017-09-05T16:20:14.734Z,2.60
2017-09-05T16:22:43.998Z,5.68
2017-09-05T16:25:13.275Z,3.67
2017-09-05T16:27:42.519Z,3.20
2017-09-05T16:30:11.776Z,6.80
2017-09-05T16:32:41.033Z,3.95
2017-09-05T16:35:10.318Z,3.12
2017-09-05T16:37:39.556Z,7.12
2017-09-05T16:40:08.809Z,3.67
2017-09-05T16:42:38.261Z,4.15
2017-09-05T16:45:07.527Z,4.50
2017-09-05T16:47:36.768Z,3.33
2017-09-05T16:50:06.052Z,3.72
2017-09-05T16:52:35.314Z,3.45
2017-09-05T16:55:04.570Z,3.80
2017-09-05T16:57:33.822Z,4.50
2017-09-05T17:00:03.827Z,4.70
2017-09-05T17:02:33.068Z,18.08
2017-09-05T17:05:02.453Z,107.63
2017-09-05T17:07:31.704Z,52.38
2017-09-05T17:10:00.958Z,117.47
2017-09-05T17:12:30.227Z,71.93
2017-09-05T17:14:59.528Z,58.70
2017-09-05T17:17:28.885Z,118.57
2017-09-05T17:19:58.302Z,53.38
2017-09-05T17:22:27.563Z,41.05
2017-09-05T17:24:56.811Z,23.58
2017-09-05T17:27:26.199Z,11.38
2017-09-05T17:29:55.444Z,9.60
2017-09-05T17:32:24.685Z,6.10
2017-09-05T17:34:54.065Z,9.75
2017-09-05T17:37:23.316Z,5.87
2017-09-05T17:39:52.559Z,5.87
2017-09-05T17:42:21.847Z,7.75
2017-09-05T17:44:51.099Z,5.07
2017-09-05T17:47:20.331Z,8.68
2017-09-05T17:49:49.780Z,8.20
2017-09-05T17:52:19.031Z,10.88
2017-09-05T17:54:48.287Z,6.03
2017-09-05T17:57:17.580Z,7.43
2017-09-05T17:59:46.823Z,8.23
2017-09-05T18:02:16.078Z,8.48
2017-09-05T18:04:45.371Z,8.75
2017-09-05T18:07:14.622Z,9.32
2017-09-05T18:09:43.870Z,5.62
2017-09-05T18:12:13.142Z,9.93
2017-09-05T18:14:42.383Z,6.78
2017-09-05T18:17:11.868Z,10.02
2017-09-05T18:19:41.111Z,6.75
2017-09-05T18:22:10.357Z,8.70
2017-09-05T18:24:39.797Z,7.95
2017-09-05T18:27:09.044Z,6.20
2017-09-05T18:29:38.288Z,9.50
2017-09-05T18:32:07.563Z,4.50
2017-09-05T18:34:36.813Z,8.98
2017-09-05T18:37:06.091Z,6.03
2017-09-05T18:39:35.334Z,6.00
2017-09-05T18:42:04.618Z,6.00
2017-09-05T18:44:34.044Z,9.95
2017-09-05T18:47:03.295Z,7.05
2017-09-05T18:49:32.547Z,6.00
2017-09-05T18:52:01.832Z,7.40
2017-09-05T18:54:31.078Z,7.05
2017-09-05T18:57:04.091Z,6.10
2017-09-05T18:59:33.344Z,10.27
2017-09-05T19:02:02.611Z,7.93
2017-09-05T19:04:31.895Z,6.40
2017-09-05T19:07:01.175Z,7.97
2017-09-05T19:09:30.419Z,6.15
2017-09-05T19:11:59.667Z,11.25
2017-09-05T19:14:28.991Z,5.43
2017-09-05T19:16:58.238Z,5.75
2017-09-05T19:19:27.483Z,7.15
2017-09-05T19:21:56.755Z,6.70
2017-09-05T19:24:26.013Z,8.98
2017-09-05T19:26:55.250Z,7.32
2017-09-05T19:29:25.374Z,7.28
2017-09-05T19:31:54.619Z,5.75
2017-09-05T19:34:23.874Z,5.87
2017-09-05T19:36:53.137Z,9.95
2017-09-05T19:39:22.543Z,5.95
2017-09-05T19:41:51.971Z,7.75
2017-09-05T19:44:21.207Z,8.40
2017-09-05T19:46:50.463Z,6.85
2017-09-05T19:49:19.731Z,7.75
2017-09-05T19:51:48.979Z,8.13
2017-09-05T19:54:18.227Z,14.75
2017-09-05T19:56:47.667Z,7.70
2017-09-05T19:59:16.912Z,10.55
2017-09-05T20:01:46.168Z,8.30
2017-09-05T20:04:15.579Z,7.10
2017-09-05T20:06:44.839Z,7.20
2017-09-05T20:09:14.090Z,5.75
2017-09-05T20:11:43.366Z,7.85
2017-09-05T20:14:12.608Z,11.10
2017-09-05T20:16:41.860Z,10.30
2017-09-05T20:19:11.151Z,6.40
2017-09-05T20:21:40.397Z,5.82
2017-09-05T20:24:09.643Z,8.00
2017-09-05T20:26:38.932Z,8.38
2017-09-05T20:29:08.170Z,7.80
2017-09-05T20:31:37.437Z,7.60
2017-09-05T20:34:06.699Z,10.73
2017-09-05T20:36:35.958Z,10.70
2017-09-05T20:39:05.224Z,9.13
2017-09-05T20:41:34.467Z,7.90
2017-09-05T20:44:03.716Z,5.65
2017-09-05T20:46:33.132Z,6.70
2017-09-05T20:49:02.376Z,7.82
2017-09-05T20:51:31.620Z,9.95
2017-09-05T20:54:00.887Z,7.80
2017-09-05T20:56:30.127Z,5.65
2017-09-05T20:58:59.369Z,7.85
2017-09-05T21:01:28.641Z,7.28
2017-09-05T21:03:57.892Z,7.15
2017-09-05T21:06:27.132Z,8.35
2017-09-05T21:08:56.404Z,6.22
2017-09-05T21:11:25.644Z,6.35
2017-09-05T21:13:54.893Z,7.12
2017-09-05T21:16:24.152Z,8.15
2017-09-05T21:18:53.763Z,9.05
2017-09-05T21:21:23.175Z,7.40
2017-09-05T21:23:52.421Z,6.90
2017-09-05T21:26:21.663Z,7.20
2017-09-05T21:28:50.951Z,5.93
2017-09-05T21:31:20.187Z,8.02
2017-09-05T21:33:49.432Z,7.37
2017-09-05T21:36:18.681Z,6.43
2017-09-05T21:38:47.927Z,5.80
2017-09-05T21:41:17.471Z,7.43
2017-09-05T21:43:46.740Z,7.68
2017-09-05T21:46:15.957Z,4.90
2017-09-05T21:48:45.395Z,7.10
2017-09-05T21:51:14.626Z,6.82
2017-09-05T21:53:43.892Z,9.68
2017-09-05T21:56:13.306Z,4.93
2017-09-05T21:58:42.552Z,4.90
2017-09-05T22:01:11.791Z,6.25
2017-09-05T22:03:41.043Z,6.53
2017-09-05T22:06:10.288Z,5.87
2017-09-05T22:08:39.540Z,5.72
2017-09-05T22:11:09.755Z,5.68
2017-09-05T22:13:38.994Z,7.93
2017-09-05T22:16:08.239Z,5.25
2017-09-05T22:18:42.952Z,6.60
2017-09-05T22:21:17.592Z,6.75
2017-09-05T22:23:46.846Z,6.97
2017-09-05T22:26:21.603Z,7.03
2017-09-05T22:28:56.445Z,7.78
2017-09-05T22:31:25.699Z,6.72
2017-09-05T22:33:54.942Z,7.65
2017-09-05T22:36:24.211Z,8.55
2017-09-05T22:38:53.452Z,7.97
2017-09-05T22:41:22.804Z,7.03
2017-09-05T22:43:52.151Z,7.95
2017-09-05T22:46:21.391Z,5.43
2017-09-05T22:48:50.636Z,5.10
2017-09-05T22:51:20.049Z,5.70
2017-09-05T22:53:49.295Z,5.00
2017-09-05T22:56:18.544Z,5.00
2017-09-05T22:58:47.816Z,4.32
2017-09-05T23:01:17.054Z,4.78
2017-09-05T23:03:46.294Z,4.68
2017-09-05T23:06:15.567Z,5.28
2017-09-05T23:08:44.813Z,4.28
2017-09-05T23:11:14.055Z,6.35
2017-09-05T23:13:43.472Z,4.00
2017-09-05T23:16:12.718Z,4.18
2017-09-05T23:18:41.958Z,5.68
2017-09-05T23:21:11.223Z,4.62
2017-09-05T23:23:40.463Z,4.32
2017-09-05T23:26:09.707Z,4.95
2017-09-05T23:28:39.132Z,5.10
2017-09-05T23:31:08.381Z,4.30
2017-09-05T23:33:37.624Z,4.32
2017-09-05T23:36:06.908Z,3.60
2017-09-05T23:38:36.180Z,4.12
2017-09-05T23:41:05.427Z,4.20
2017-09-05T23:43:34.687Z,3.75
2017-09-05T23:46:03.926Z,3.97
2017-09-05T23:48:33.172Z,3.28
2017-09-05T23:51:02.436Z,2.90
2017-09-05T23:53:31.688Z,4.47
2017-09-05T23:56:00.947Z,2.60
2017-09-05T23:58:30.365Z,4.15
